Freedom — WDD5825 — position and weather

sailwx.info

Track history (hours):
 
Tides and Currents Weather Stations Pressure Air Temp Water Temp Dewpoint Dewpoint Depression Visibility Wind Speed Wind Dir Waves Ship Positions

Freedom

Owner: REINAUER TRANSPORTATION CO.,LLC., STATEN ISLAND, NY. More information available from US FCC via Universal Licensing System and Coast Guard Vessel Documentation Center.

Last reported at 2017-Nov-17 20:19 UTC. Time now 2017-Nov-17 21:18 UTC.
Position N 42°23' W 071°03'.

Length 28 m; draft 4.3 m.

Type: Tug. MMSI: 367164250.

Date/timePositionNaut miles runAvg speedWind from/ knotsBaromVisibWave heightAir tempDewpointWater temp
2017-Nov-17 20:19N 42°23' W 071°03'0 0.0
2017-Nov-17 20:00N 42°23' W 071°03'0 0.0
2017-Nov-17 19:29N 42°23' W 071°03'0 0.0
2017-Nov-17 18:59N 42°23' W 071°03'0 0.0
2017-Nov-17 18:30N 42°23' W 071°03'0 0.0
2017-Nov-17 18:00N 42°23' W 071°03'0 0.0
2017-Nov-17 17:30N 42°23' W 071°03'0 0.0
2017-Nov-17 16:59N 42°23' W 071°03'0 0.0
2017-Nov-17 16:30N 42°23' W 071°03'0 0.0
2017-Nov-17 16:00N 42°23' W 071°03'0 0.0
2017-Nov-17 15:30N 42°23' W 071°03'0 0.0
2017-Nov-17 15:00N 42°23' W 071°03'0 0.0
2017-Nov-17 14:30N 42°23' W 071°03'0 0.0
2017-Nov-17 14:00N 42°23' W 071°03'0 0.0
2017-Nov-17 13:30N 42°23' W 071°03'0 0.0
2017-Nov-17 13:00N 42°23' W 071°03'0 0.0
2017-Nov-17 12:29N 42°23' W 071°03'0 0.0
2017-Nov-17 11:58N 42°23' W 071°03'0 0.0
2017-Nov-17 11:28N 42°23' W 071°03'0 0.0
2017-Nov-17 10:45N 42°23' W 071°03'0 0.0
2017-Nov-17 10:14N 42°23' W 071°03'0 0.0
2017-Nov-17 09:55N 42°23' W 071°03'0 0.0
2017-Nov-17 09:29N 42°23' W 071°03'0 0.0
2017-Nov-17 08:28N 42°23' W 071°03'0 0.0
2017-Nov-17 07:45N 42°23' W 071°03'0 0.0
2017-Nov-17 07:27N 42°23' W 071°03'0 0.0
2017-Nov-17 06:49N 42°23' W 071°03'0 0.0
2017-Nov-17 06:23N 42°23' W 071°03'0 0.0
2017-Nov-17 05:56N 42°23' W 071°03'0 0.0
2017-Nov-17 05:23N 42°23' W 071°03'0 0.0
2017-Nov-17 02:17N 42°23' W 071°03'0 0.0
2017-Nov-17 01:54N 42°23' W 071°03'0 0.0
2017-Nov-17 01:14N 42°23' W 071°03'0 0.0
2017-Nov-17 00:59N 42°23' W 071°03'0 0.0
2017-Nov-16 23:34N 42°23' W 071°03'0 0.0
2017-Nov-16 23:31N 42°23' W 071°03'0 0.0
2017-Nov-16 22:59N 42°23' W 071°03'0 0.0
2017-Nov-16 22:30N 42°23' W 071°03'0 0.0
2017-Nov-16 21:42N 42°23' W 071°03'0 0.0
2017-Nov-16 21:30N 42°23' W 071°03'0 0.0
2017-Nov-16 20:59N 42°23' W 071°03'0 0.0
2017-Nov-16 20:21N 42°23' W 071°03'0 0.0
2017-Nov-16 19:55N 42°23' W 071°03'0 0.0
2017-Nov-16 19:30N 42°23' W 071°03'0 0.0
2017-Nov-16 18:42N 42°23' W 071°03'0 0.0
2017-Nov-16 18:20N 42°23' W 071°03'0 0.0
2017-Nov-16 18:01N 42°23' W 071°03'0 0.0
2017-Nov-16 17:31N 42°23' W 071°03'0 0.0
2017-Nov-16 17:00N 42°23' W 071°03'0 0.0
2017-Nov-16 16:28N 42°23' W 071°03'0 0.0
2017-Nov-16 16:00N 42°23' W 071°03'0 0.0
2017-Nov-16 15:30N 42°23' W 071°03'0 0.0
2017-Nov-16 14:47N 42°23' W 071°03'0 0.0
2017-Nov-16 14:30N 42°23' W 071°03'0 0.0
2017-Nov-16 14:00N 42°23' W 071°03'0 0.0
2017-Nov-16 13:30N 42°23' W 071°03'0 0.0
2017-Nov-16 13:00N 42°23' W 071°03'0 0.0
2017-Nov-16 12:31N 42°23' W 071°03'1 1.5
2017-Nov-16 12:00N 42°23' W 071°02'1 1.2
2017-Nov-16 11:29N 42°24' W 071°01'1 1.4
2017-Nov-16 11:00N 42°23' W 071°02'1 1.4
2017-Nov-16 10:30N 42°23' W 071°03'1 1.7
2017-Nov-16 09:48N 42°24' W 071°01'2 5.5
2017-Nov-16 09:30N 42°23' W 071°03'1 0.9
2017-Nov-16 08:45N 42°22' W 071°03'1 3.4
2017-Nov-16 08:30N 42°23' W 071°03'1 2.0
2017-Nov-16 08:01N 42°23' W 071°04'0 0.0
2017-Nov-16 07:30N 42°23' W 071°04'0 0.0
2017-Nov-16 07:00N 42°23' W 071°04'1 2.0
2017-Nov-16 06:30N 42°23' W 071°03'0 0.0
2017-Nov-15 04:00N 42°23' W 071°03'1 1.9
2017-Nov-15 03:30N 42°23' W 071°04'0 0.0
2017-Nov-15 03:00N 42°23' W 071°04'0 0.0
2017-Nov-15 02:30N 42°23' W 071°04'0 0.0
2017-Nov-15 02:00N 42°23' W 071°04'0 0.0
2017-Nov-15 01:30N 42°23' W 071°04'1 1.3
2017-Nov-15 01:00N 42°23' W 071°03'1 1.0
2017-Nov-15 00:29N 42°23' W 071°03'3 5.3
2017-Nov-14 23:55N 42°20' W 071°00'2 3.6
2017-Nov-14 23:28N 42°20' W 070°58'1 1.7
2017-Nov-14 22:55N 42°20' W 070°59'4 8.4
2017-Nov-14 22:29N 42°23' W 071°03'0 0.1
2017-Nov-14 22:00N 42°23' W 071°03'1 2.5
2017-Nov-14 21:30N 42°23' W 071°01'0 0.4
2017-Nov-14 20:57N 42°23' W 071°01'1 2.2
2017-Nov-14 20:27N 42°23' W 071°03'2 3.5
2017-Nov-14 19:59N 42°24' W 071°01'1 2.3
2017-Nov-14 19:24N 42°23' W 071°02'0 1.0
2017-Nov-14 19:00N 42°23' W 071°03'0 0.0
2017-Nov-14 18:28N 42°23' W 071°03'0 0.0
2017-Nov-14 18:00N 42°23' W 071°03'0 0.0
2017-Nov-14 17:25N 42°23' W 071°03'0 0.0
2017-Nov-14 17:00N 42°23' W 071°03'0 0.0
2017-Nov-14 16:30N 42°23' W 071°03'2 4.6
2017-Nov-14 15:59N 42°21' W 071°01'6 2.2
2017-Nov-14 13:17N 42°16' W 070°56'1 3.8
2017-Nov-14 13:00N 42°17' W 070°56'2 3.6
2017-Nov-14 12:19N 42°19' W 070°54'410.9
2017-Nov-14 11:58N 42°20' W 070°59'2 2.5
2017-Nov-14 11:14N 42°21' W 071°01'2 8.1
2017-Nov-14 11:00N 42°22' W 071°03'1 2.1
2017-Nov-14 10:30N 42°23' W 071°03'1 1.6
2017-Nov-14 10:00N 42°22' W 071°03'1 0.0
2017-Nov-12 12:11N 42°23' W 071°03'1 3.3
2017-Nov-12 11:57N 42°23' W 071°02'1 1.3
2017-Nov-12 11:14N 42°24' W 071°01'1 5.5
2017-Nov-12 10:59N 42°23' W 071°02'3 5.2
2017-Nov-12 10:27N 42°21' W 071°01'1 1.2
2017-Nov-12 09:57N 42°20' W 071°01'2 4.6
2017-Nov-12 09:30N 42°22' W 071°03'1 0.3
2017-Nov-12 06:26N 42°23' W 071°03'0 0.0
2017-Nov-12 05:57N 42°23' W 071°03'0 0.0
2017-Nov-12 02:12N 42°23' W 071°03'0 0.0
2017-Nov-12 01:49N 42°23' W 071°03'0 0.0
2017-Nov-12 01:15N 42°23' W 071°03'0 0.0
2017-Nov-12 00:47N 42°23' W 071°03'0 0.0
2017-Nov-12 00:30N 42°23' W 071°03'0 0.0
2017-Nov-11 23:59N 42°23' W 071°03'0 0.0
2017-Nov-11 23:28N 42°23' W 071°03'0 0.0
2017-Nov-11 22:57N 42°23' W 071°03'0 0.0
2017-Nov-11 22:12N 42°23' W 071°03'0 0.0
2017-Nov-11 21:52N 42°23' W 071°03'0 0.0
2017-Nov-11 21:30N 42°23' W 071°03'0 0.0
2017-Nov-11 20:59N 42°23' W 071°03'0 0.0
2017-Nov-11 20:29N 42°23' W 071°03'0 0.0
2017-Nov-11 19:59N 42°23' W 071°03'0 0.0
2017-Nov-11 19:24N 42°23' W 071°03'0 0.0
2017-Nov-11 18:53N 42°23' W 071°03'0 0.0
2017-Nov-11 18:26N 42°23' W 071°03'0 0.0
2017-Nov-11 15:32N 42°23' W 071°03'0 0.0
2017-Nov-11 15:27N 42°23' W 071°03'4 7.3
2017-Nov-11 14:58N 42°20' W 070°59'511.1
2017-Nov-11 14:30N 42°23' W 070°54'5 7.5
2017-Nov-11 13:49N 42°25' W 070°47'311.0
2017-Nov-11 13:31N 42°23' W 070°51'612.3
2017-Nov-11 12:59N 42°20' W 070°59'4 8.5
2017-Nov-11 12:30N 42°23' W 071°03'2 3.2
2017-Nov-11 12:00N 42°24' W 071°01'1 2.3
2017-Nov-11 11:25N 42°23' W 071°02'3 5.0
2017-Nov-11 10:52N 42°21' W 071°01'0 0.5
2017-Nov-11 10:31N 42°21' W 071°01'2 3.0
2017-Nov-11 10:00N 42°20' W 070°59'1 1.6
2017-Nov-11 09:30N 42°20' W 071°00'3 5.4
2017-Nov-11 08:57N 42°23' W 071°03'0 0.0
2017-Nov-11 08:29N 42°23' W 071°03'0 0.0
2017-Nov-11 08:00N 42°23' W 071°03'0 0.0
2017-Nov-11 07:30N 42°23' W 071°03'0 0.0
2017-Nov-11 07:00N 42°23' W 071°03'0 0.0
2017-Nov-11 06:29N 42°23' W 071°03'0 0.0
2017-Nov-11 05:55N 42°23' W 071°03'0 0.0
2017-Nov-11 05:27N 42°23' W 071°03'0 0.0
2017-Nov-11 04:59N 42°23' W 071°03'0 0.0
2017-Nov-11 04:29N 42°23' W 071°03'0 0.0
2017-Nov-11 02:18N 42°23' W 071°03'0 0.0
2017-Nov-11 01:52N 42°23' W 071°03'0 0.0
2017-Nov-10 23:54N 42°23' W 071°03'0 0.0
2017-Nov-10 23:30N 42°23' W 071°03'0 0.0
2017-Nov-10 22:59N 42°23' W 071°03'0 0.0
2017-Nov-10 22:28N 42°23' W 071°03'0 0.8
2017-Nov-10 21:58N 42°23' W 071°02'0 0.1
2017-Nov-10 21:15N 42°23' W 071°02'0 0.7
2017-Nov-10 20:58N 42°23' W 071°03'1 1.2
2017-Nov-10 20:28N 42°22' W 071°03'1 1.9
2017-Nov-10 19:57N 42°22' W 071°02'2 4.2
2017-Nov-10 19:30N 42°23' W 071°03'0 0.0
2017-Nov-10 18:58N 42°23' W 071°03'1 2.0
2017-Nov-10 18:30N 42°22' W 071°03'1 2.7
2017-Nov-10 17:57N 42°21' W 071°02'2 3.9
2017-Nov-10 17:30N 42°23' W 071°03'0 0.0
2017-Nov-10 10:25N 42°23' W 071°03'0 0.0
2017-Nov-10 09:56N 42°23' W 071°03'0 0.0
2017-Nov-10 09:30N 42°23' W 071°03'0 0.0
2017-Nov-10 09:00N 42°23' W 071°03'0 0.0
2017-Nov-10 08:30N 42°23' W 071°03'0 0.0
2017-Nov-10 08:00N 42°23' W 071°03'0 0.0
2017-Nov-10 07:29N 42°23' W 071°03'0 0.0
2017-Nov-10 07:00N 42°23' W 071°03'0 0.0
2017-Nov-10 06:30N 42°23' W 071°03'0 0.0
2017-Nov-10 06:00N 42°23' W 071°03'0 0.0
2017-Nov-10 05:30N 42°23' W 071°03'0 0.0
2017-Nov-10 05:01N 42°23' W 071°03'0 0.0
2017-Nov-10 04:30N 42°23' W 071°03'0 0.0
2017-Nov-10 04:00N 42°23' W 071°03'0 0.0
2017-Nov-10 03:30N 42°23' W 071°03'0 0.0
2017-Nov-10 03:00N 42°23' W 071°03'0 0.0
2017-Nov-10 02:30N 42°23' W 071°03'0 0.0
2017-Nov-10 02:00N 42°23' W 071°03'0 0.0
2017-Nov-10 01:30N 42°23' W 071°03'0 0.0
2017-Nov-10 01:00N 42°23' W 071°03'0 0.0
2017-Nov-10 00:30N 42°23' W 071°03'0 0.0
2017-Nov-10 00:00N 42°23' W 071°03'0 0.0
2017-Nov-09 23:30N 42°23' W 071°03'0 0.0
2017-Nov-09 23:00N 42°23' W 071°03'0 0.0
2017-Nov-09 22:30N 42°23' W 071°03'0 0.0
2017-Nov-09 21:59N 42°23' W 071°03'1 2.0
2017-Nov-09 21:29N 42°23' W 071°01'1 1.5
2017-Nov-09 20:59N 42°24' W 071°01'1 1.8
2017-Nov-09 20:30N 42°23' W 071°01'2 3.0
2017-Nov-09 19:59N 42°22' W 071°03'2 2.8
2017-Nov-09 19:25N 42°21' W 071°01'0 0.0
2017-Nov-09 19:00N 42°21' W 071°01'0 0.0
2017-Nov-09 18:31N 42°21' W 071°01'0 0.2
2017-Nov-09 17:56N 42°21' W 071°01'0 1.1
2017-Nov-09 17:28N 42°21' W 071°02'2 1.5
2017-Nov-09 16:13N 42°23' W 071°03'9 2.6
2017-Nov-09 12:40N 42°14' W 070°58'1 6.4
2017-Nov-09 12:29N 42°15' W 070°57'1 1.6
2017-Nov-09 11:59N 42°15' W 070°58'0 0.1
2017-Nov-09 11:28N 42°15' W 070°58'0 0.9
2017-Nov-09 10:57N 42°15' W 070°57'4 9.2
2017-Nov-09 10:30N 42°19' W 070°56'4 8.5
2017-Nov-09 10:00N 42°21' W 071°01'2 0.3
2017-Nov-09 02:30N 42°23' W 071°03'0 0.3
2017-Nov-09 01:51N 42°23' W 071°03'0 0.1
2017-Nov-08 21:41N 42°23' W 071°03'0 0.0
2017-Nov-08 19:08N 42°23' W 071°03'1 4.4
2017-Nov-08 19:00N 42°22' W 071°03'2 4.1
2017-Nov-08 18:30N 42°21' W 071°01'1 2.3
2017-Nov-08 17:54N 42°20' W 070°60'4 5.7
2017-Nov-08 17:15N 42°23' W 071°03'0 0.1
2017-Nov-08 16:17N 42°23' W 071°03'0 0.0
2017-Nov-08 16:01N 42°23' W 071°03'0 0.0
2017-Nov-08 15:30N 42°23' W 071°03'0 0.0
2017-Nov-08 15:01N 42°23' W 071°03'0 0.0
2017-Nov-08 14:31N 42°23' W 071°03'0 0.0
2017-Nov-08 14:00N 42°23' W 071°03'0 0.0
2017-Nov-08 13:30N 42°23' W 071°03'0 0.0
2017-Nov-08 13:01N 42°23' W 071°03'0 0.0
2017-Nov-08 12:31N 42°23' W 071°03'0 0.0
2017-Nov-08 12:01N 42°23' W 071°03'0 0.0
2017-Nov-08 11:30N 42°23' W 071°03'0 0.0
2017-Nov-08 11:01N 42°23' W 071°03'0 0.0
2017-Nov-08 10:31N 42°23' W 071°03'0 0.0
2017-Nov-08 10:01N 42°23' W 071°03'0 0.0
2017-Nov-08 09:30N 42°23' W 071°03'0 0.0
2017-Nov-08 09:01N 42°23' W 071°03'0 0.0
2017-Nov-08 08:31N 42°23' W 071°03'0 0.0
2017-Nov-08 08:01N 42°23' W 071°03'0 0.0
2017-Nov-08 07:31N 42°23' W 071°03'0 0.0
2017-Nov-08 07:01N 42°23' W 071°03'0 0.0
2017-Nov-08 06:31N 42°23' W 071°03'0 0.0
2017-Nov-08 06:01N 42°23' W 071°03'0 0.0
2017-Nov-08 05:30N 42°23' W 071°03'0 0.0
2017-Nov-08 05:00N 42°23' W 071°03'0 0.0
2017-Nov-08 04:30N 42°23' W 071°03'0 0.0
2017-Nov-08 04:01N 42°23' W 071°03'0 0.0
2017-Nov-08 03:31N 42°23' W 071°03'0 0.0
2017-Nov-08 03:01N 42°23' W 071°03'0 0.0
2017-Nov-08 02:30N 42°23' W 071°03'0 0.0
2017-Nov-08 02:01N 42°23' W 071°03'0 0.0
2017-Nov-08 01:31N 42°23' W 071°03'0 0.0
2017-Nov-08 01:00N 42°23' W 071°03'0 0.0
2017-Nov-08 00:31N 42°23' W 071°03'0 0.0
2017-Nov-08 00:01N 42°23' W 071°03'0 0.0
2017-Nov-07 23:30N 42°23' W 071°03'0 0.0
2017-Nov-07 23:01N 42°23' W 071°03'0 0.0
2017-Nov-07 22:31N 42°23' W 071°03'0 0.0
2017-Nov-07 22:00N 42°23' W 071°03'0 0.0
2017-Nov-07 21:31N 42°23' W 071°03'0 0.0
2017-Nov-07 21:00N 42°23' W 071°03'0 0.0
2017-Nov-07 20:31N 42°23' W 071°03'  
Track history (hours):
 
Tides and Currents Weather Stations Pressure Air Temp Water Temp Dewpoint Dewpoint Depression Visibility Wind Speed Wind Dir Waves Ship Positions

Freedom

Owner: REINAUER TRANSPORTATION CO.,LLC., STATEN ISLAND, NY. More information available from US FCC via Universal Licensing System and Coast Guard Vessel Documentation Center.

Last reported at 2017-Nov-17 20:19 UTC. Time now 2017-Nov-17 21:18 UTC.
Position N 42°23' W 071°03'.

Length 28 m; draft 4.3 m.

Type: Tug. MMSI: 367164250.

Date/timePositionNaut miles runAvg speedWind from/ knotsBaromVisibWave heightAir tempDewpointWater temp
2017-Nov-17 20:19N 42°23' W 071°03'0 0.0
2017-Nov-17 20:00N 42°23' W 071°03'0 0.0
2017-Nov-17 19:29N 42°23' W 071°03'0 0.0
2017-Nov-17 18:59N 42°23' W 071°03'0 0.0
2017-Nov-17 18:30N 42°23' W 071°03'0 0.0
2017-Nov-17 18:00N 42°23' W 071°03'0 0.0
2017-Nov-17 17:30N 42°23' W 071°03'0 0.0
2017-Nov-17 16:59N 42°23' W 071°03'0 0.0
2017-Nov-17 16:30N 42°23' W 071°03'0 0.0
2017-Nov-17 16:00N 42°23' W 071°03'0 0.0
2017-Nov-17 15:30N 42°23' W 071°03'0 0.0
2017-Nov-17 15:00N 42°23' W 071°03'0 0.0
2017-Nov-17 14:30N 42°23' W 071°03'0 0.0
2017-Nov-17 14:00N 42°23' W 071°03'0 0.0
2017-Nov-17 13:30N 42°23' W 071°03'0 0.0
2017-Nov-17 13:00N 42°23' W 071°03'0 0.0
2017-Nov-17 12:29N 42°23' W 071°03'0 0.0
2017-Nov-17 11:58N 42°23' W 071°03'0 0.0
2017-Nov-17 11:28N 42°23' W 071°03'0 0.0
2017-Nov-17 10:45N 42°23' W 071°03'0 0.0
2017-Nov-17 10:14N 42°23' W 071°03'0 0.0
2017-Nov-17 09:55N 42°23' W 071°03'0 0.0
2017-Nov-17 09:29N 42°23' W 071°03'0 0.0
2017-Nov-17 08:28N 42°23' W 071°03'0 0.0
2017-Nov-17 07:45N 42°23' W 071°03'0 0.0
2017-Nov-17 07:27N 42°23' W 071°03'0 0.0
2017-Nov-17 06:49N 42°23' W 071°03'0 0.0
2017-Nov-17 06:23N 42°23' W 071°03'0 0.0
2017-Nov-17 05:56N 42°23' W 071°03'0 0.0
2017-Nov-17 05:23N 42°23' W 071°03'0 0.0
2017-Nov-17 02:17N 42°23' W 071°03'0 0.0
2017-Nov-17 01:54N 42°23' W 071°03'0 0.0
2017-Nov-17 01:14N 42°23' W 071°03'0 0.0
2017-Nov-17 00:59N 42°23' W 071°03'0 0.0
2017-Nov-16 23:34N 42°23' W 071°03'0 0.0
2017-Nov-16 23:31N 42°23' W 071°03'0 0.0
2017-Nov-16 22:59N 42°23' W 071°03'0 0.0
2017-Nov-16 22:30N 42°23' W 071°03'0 0.0
2017-Nov-16 21:42N 42°23' W 071°03'0 0.0
2017-Nov-16 21:30N 42°23' W 071°03'0 0.0
2017-Nov-16 20:59N 42°23' W 071°03'0 0.0
2017-Nov-16 20:21N 42°23' W 071°03'0 0.0
2017-Nov-16 19:55N 42°23' W 071°03'0 0.0
2017-Nov-16 19:30N 42°23' W 071°03'0 0.0
2017-Nov-16 18:42N 42°23' W 071°03'0 0.0
2017-Nov-16 18:20N 42°23' W 071°03'0 0.0
2017-Nov-16 18:01N 42°23' W 071°03'0 0.0
2017-Nov-16 17:31N 42°23' W 071°03'0 0.0
2017-Nov-16 17:00N 42°23' W 071°03'0 0.0
2017-Nov-16 16:28N 42°23' W 071°03'0 0.0
2017-Nov-16 16:00N 42°23' W 071°03'0 0.0
2017-Nov-16 15:30N 42°23' W 071°03'0 0.0
2017-Nov-16 14:47N 42°23' W 071°03'0 0.0
2017-Nov-16 14:30N 42°23' W 071°03'0 0.0
2017-Nov-16 14:00N 42°23' W 071°03'0 0.0
2017-Nov-16 13:30N 42°23' W 071°03'0 0.0
2017-Nov-16 13:00N 42°23' W 071°03'0 0.0
2017-Nov-16 12:31N 42°23' W 071°03'1 1.5
2017-Nov-16 12:00N 42°23' W 071°02'1 1.2
2017-Nov-16 11:29N 42°24' W 071°01'1 1.4
2017-Nov-16 11:00N 42°23' W 071°02'1 1.4
2017-Nov-16 10:30N 42°23' W 071°03'1 1.7
2017-Nov-16 09:48N 42°24' W 071°01'2 5.5
2017-Nov-16 09:30N 42°23' W 071°03'1 0.9
2017-Nov-16 08:45N 42°22' W 071°03'1 3.4
2017-Nov-16 08:30N 42°23' W 071°03'1 2.0
2017-Nov-16 08:01N 42°23' W 071°04'0 0.0
2017-Nov-16 07:30N 42°23' W 071°04'0 0.0
2017-Nov-16 07:00N 42°23' W 071°04'1 2.0
2017-Nov-16 06:30N 42°23' W 071°03'0 0.0
2017-Nov-15 04:00N 42°23' W 071°03'1 1.9
2017-Nov-15 03:30N 42°23' W 071°04'0 0.0
2017-Nov-15 03:00N 42°23' W 071°04'0 0.0
2017-Nov-15 02:30N 42°23' W 071°04'0 0.0
2017-Nov-15 02:00N 42°23' W 071°04'0 0.0
2017-Nov-15 01:30N 42°23' W 071°04'1 1.3
2017-Nov-15 01:00N 42°23' W 071°03'1 1.0
2017-Nov-15 00:29N 42°23' W 071°03'3 5.3
2017-Nov-14 23:55N 42°20' W 071°00'2 3.6
2017-Nov-14 23:28N 42°20' W 070°58'1 1.7
2017-Nov-14 22:55N 42°20' W 070°59'4 8.4
2017-Nov-14 22:29N 42°23' W 071°03'0 0.1
2017-Nov-14 22:00N 42°23' W 071°03'1 2.5
2017-Nov-14 21:30N 42°23' W 071°01'0 0.4
2017-Nov-14 20:57N 42°23' W 071°01'1 2.2
2017-Nov-14 20:27N 42°23' W 071°03'2 3.5
2017-Nov-14 19:59N 42°24' W 071°01'1 2.3
2017-Nov-14 19:24N 42°23' W 071°02'0 1.0
2017-Nov-14 19:00N 42°23' W 071°03'0 0.0
2017-Nov-14 18:28N 42°23' W 071°03'0 0.0
2017-Nov-14 18:00N 42°23' W 071°03'0 0.0
2017-Nov-14 17:25N 42°23' W 071°03'0 0.0
2017-Nov-14 17:00N 42°23' W 071°03'0 0.0
2017-Nov-14 16:30N 42°23' W 071°03'2 4.6
2017-Nov-14 15:59N 42°21' W 071°01'6 2.2
2017-Nov-14 13:17N 42°16' W 070°56'1 3.8
2017-Nov-14 13:00N 42°17' W 070°56'2 3.6
2017-Nov-14 12:19N 42°19' W 070°54'410.9
2017-Nov-14 11:58N 42°20' W 070°59'2 2.5
2017-Nov-14 11:14N 42°21' W 071°01'2 8.1
2017-Nov-14 11:00N 42°22' W 071°03'1 2.1
2017-Nov-14 10:30N 42°23' W 071°03'1 1.6
2017-Nov-14 10:00N 42°22' W 071°03'1 0.0
2017-Nov-12 12:11N 42°23' W 071°03'1 3.3
2017-Nov-12 11:57N 42°23' W 071°02'1 1.3
2017-Nov-12 11:14N 42°24' W 071°01'1 5.5
2017-Nov-12 10:59N 42°23' W 071°02'3 5.2
2017-Nov-12 10:27N 42°21' W 071°01'1 1.2
2017-Nov-12 09:57N 42°20' W 071°01'2 4.6
2017-Nov-12 09:30N 42°22' W 071°03'1 0.3
2017-Nov-12 06:26N 42°23' W 071°03'0 0.0
2017-Nov-12 05:57N 42°23' W 071°03'0 0.0
2017-Nov-12 02:12N 42°23' W 071°03'0 0.0
2017-Nov-12 01:49N 42°23' W 071°03'0 0.0
2017-Nov-12 01:15N 42°23' W 071°03'0 0.0
2017-Nov-12 00:47N 42°23' W 071°03'0 0.0
2017-Nov-12 00:30N 42°23' W 071°03'0 0.0
2017-Nov-11 23:59N 42°23' W 071°03'0 0.0
2017-Nov-11 23:28N 42°23' W 071°03'0 0.0
2017-Nov-11 22:57N 42°23' W 071°03'0 0.0
2017-Nov-11 22:12N 42°23' W 071°03'0 0.0
2017-Nov-11 21:52N 42°23' W 071°03'0 0.0
2017-Nov-11 21:30N 42°23' W 071°03'0 0.0
2017-Nov-11 20:59N 42°23' W 071°03'0 0.0
2017-Nov-11 20:29N 42°23' W 071°03'0 0.0
2017-Nov-11 19:59N 42°23' W 071°03'0 0.0
2017-Nov-11 19:24N 42°23' W 071°03'0 0.0
2017-Nov-11 18:53N 42°23' W 071°03'0 0.0
2017-Nov-11 18:26N 42°23' W 071°03'0 0.0
2017-Nov-11 15:32N 42°23' W 071°03'0 0.0
2017-Nov-11 15:27N 42°23' W 071°03'4 7.3
2017-Nov-11 14:58N 42°20' W 070°59'511.1
2017-Nov-11 14:30N 42°23' W 070°54'5 7.5
2017-Nov-11 13:49N 42°25' W 070°47'311.0
2017-Nov-11 13:31N 42°23' W 070°51'612.3
2017-Nov-11 12:59N 42°20' W 070°59'4 8.5
2017-Nov-11 12:30N 42°23' W 071°03'2 3.2
2017-Nov-11 12:00N 42°24' W 071°01'1 2.3
2017-Nov-11 11:25N 42°23' W 071°02'3 5.0
2017-Nov-11 10:52N 42°21' W 071°01'0 0.5
2017-Nov-11 10:31N 42°21' W 071°01'2 3.0
2017-Nov-11 10:00N 42°20' W 070°59'1 1.6
2017-Nov-11 09:30N 42°20' W 071°00'3 5.4
2017-Nov-11 08:57N 42°23' W 071°03'0 0.0
2017-Nov-11 08:29N 42°23' W 071°03'0 0.0
2017-Nov-11 08:00N 42°23' W 071°03'0 0.0
2017-Nov-11 07:30N 42°23' W 071°03'0 0.0
2017-Nov-11 07:00N 42°23' W 071°03'0 0.0
2017-Nov-11 06:29N 42°23' W 071°03'0 0.0
2017-Nov-11 05:55N 42°23' W 071°03'0 0.0
2017-Nov-11 05:27N 42°23' W 071°03'0 0.0
2017-Nov-11 04:59N 42°23' W 071°03'0 0.0
2017-Nov-11 04:29N 42°23' W 071°03'0 0.0
2017-Nov-11 02:18N 42°23' W 071°03'0 0.0
2017-Nov-11 01:52N 42°23' W 071°03'0 0.0
2017-Nov-10 23:54N 42°23' W 071°03'0 0.0
2017-Nov-10 23:30N 42°23' W 071°03'0 0.0
2017-Nov-10 22:59N 42°23' W 071°03'0 0.0
2017-Nov-10 22:28N 42°23' W 071°03'0 0.8
2017-Nov-10 21:58N 42°23' W 071°02'0 0.1
2017-Nov-10 21:15N 42°23' W 071°02'0 0.7
2017-Nov-10 20:58N 42°23' W 071°03'1 1.2
2017-Nov-10 20:28N 42°22' W 071°03'1 1.9
2017-Nov-10 19:57N 42°22' W 071°02'2 4.2
2017-Nov-10 19:30N 42°23' W 071°03'0 0.0
2017-Nov-10 18:58N 42°23' W 071°03'1 2.0
2017-Nov-10 18:30N 42°22' W 071°03'1 2.7
2017-Nov-10 17:57N 42°21' W 071°02'2 3.9
2017-Nov-10 17:30N 42°23' W 071°03'0 0.0
2017-Nov-10 10:25N 42°23' W 071°03'0 0.0
2017-Nov-10 09:56N 42°23' W 071°03'0 0.0
2017-Nov-10 09:30N 42°23' W 071°03'0 0.0
2017-Nov-10 09:00N 42°23' W 071°03'0 0.0
2017-Nov-10 08:30N 42°23' W 071°03'0 0.0
2017-Nov-10 08:00N 42°23' W 071°03'0 0.0
2017-Nov-10 07:29N 42°23' W 071°03'0 0.0
2017-Nov-10 07:00N 42°23' W 071°03'0 0.0
2017-Nov-10 06:30N 42°23' W 071°03'0 0.0
2017-Nov-10 06:00N 42°23' W 071°03'0 0.0
2017-Nov-10 05:30N 42°23' W 071°03'0 0.0
2017-Nov-10 05:01N 42°23' W 071°03'0 0.0
2017-Nov-10 04:30N 42°23' W 071°03'0 0.0
2017-Nov-10 04:00N 42°23' W 071°03'0 0.0
2017-Nov-10 03:30N 42°23' W 071°03'0 0.0
2017-Nov-10 03:00N 42°23' W 071°03'0 0.0
2017-Nov-10 02:30N 42°23' W 071°03'0 0.0
2017-Nov-10 02:00N 42°23' W 071°03'0 0.0
2017-Nov-10 01:30N 42°23' W 071°03'0 0.0
2017-Nov-10 01:00N 42°23' W 071°03'0 0.0
2017-Nov-10 00:30N 42°23' W 071°03'0 0.0
2017-Nov-10 00:00N 42°23' W 071°03'0 0.0
2017-Nov-09 23:30N 42°23' W 071°03'0 0.0
2017-Nov-09 23:00N 42°23' W 071°03'0 0.0
2017-Nov-09 22:30N 42°23' W 071°03'0 0.0
2017-Nov-09 21:59N 42°23' W 071°03'1 2.0
2017-Nov-09 21:29N 42°23' W 071°01'1 1.5
2017-Nov-09 20:59N 42°24' W 071°01'1 1.8
2017-Nov-09 20:30N 42°23' W 071°01'2 3.0
2017-Nov-09 19:59N 42°22' W 071°03'2 2.8
2017-Nov-09 19:25N 42°21' W 071°01'0 0.0
2017-Nov-09 19:00N 42°21' W 071°01'0 0.0
2017-Nov-09 18:31N 42°21' W 071°01'0 0.2
2017-Nov-09 17:56N 42°21' W 071°01'0 1.1
2017-Nov-09 17:28N 42°21' W 071°02'2 1.5
2017-Nov-09 16:13N 42°23' W 071°03'9 2.6
2017-Nov-09 12:40N 42°14' W 070°58'1 6.4
2017-Nov-09 12:29N 42°15' W 070°57'1 1.6
2017-Nov-09 11:59N 42°15' W 070°58'0 0.1
2017-Nov-09 11:28N 42°15' W 070°58'0 0.9
2017-Nov-09 10:57N 42°15' W 070°57'4 9.2
2017-Nov-09 10:30N 42°19' W 070°56'4 8.5
2017-Nov-09 10:00N 42°21' W 071°01'2 0.3
2017-Nov-09 02:30N 42°23' W 071°03'0 0.3
2017-Nov-09 01:51N 42°23' W 071°03'0 0.1
2017-Nov-08 21:41N 42°23' W 071°03'0 0.0
2017-Nov-08 19:08N 42°23' W 071°03'1 4.4
2017-Nov-08 19:00N 42°22' W 071°03'2 4.1
2017-Nov-08 18:30N 42°21' W 071°01'1 2.3
2017-Nov-08 17:54N 42°20' W 070°60'4 5.7
2017-Nov-08 17:15N 42°23' W 071°03'0 0.1
2017-Nov-08 16:17N 42°23' W 071°03'0 0.0
2017-Nov-08 16:01N 42°23' W 071°03'0 0.0
2017-Nov-08 15:30N 42°23' W 071°03'0 0.0
2017-Nov-08 15:01N 42°23' W 071°03'0 0.0
2017-Nov-08 14:31N 42°23' W 071°03'0 0.0
2017-Nov-08 14:00N 42°23' W 071°03'0 0.0
2017-Nov-08 13:30N 42°23' W 071°03'0 0.0
2017-Nov-08 13:01N 42°23' W 071°03'0 0.0
2017-Nov-08 12:31N 42°23' W 071°03'0 0.0
2017-Nov-08 12:01N 42°23' W 071°03'0 0.0
2017-Nov-08 11:30N 42°23' W 071°03'0 0.0
2017-Nov-08 11:01N 42°23' W 071°03'0 0.0
2017-Nov-08 10:31N 42°23' W 071°03'0 0.0
2017-Nov-08 10:01N 42°23' W 071°03'0 0.0
2017-Nov-08 09:30N 42°23' W 071°03'0 0.0
2017-Nov-08 09:01N 42°23' W 071°03'0 0.0
2017-Nov-08 08:31N 42°23' W 071°03'0 0.0
2017-Nov-08 08:01N 42°23' W 071°03'0 0.0
2017-Nov-08 07:31N 42°23' W 071°03'0 0.0
2017-Nov-08 07:01N 42°23' W 071°03'0 0.0
2017-Nov-08 06:31N 42°23' W 071°03'0 0.0
2017-Nov-08 06:01N 42°23' W 071°03'0 0.0
2017-Nov-08 05:30N 42°23' W 071°03'0 0.0
2017-Nov-08 05:00N 42°23' W 071°03'0 0.0
2017-Nov-08 04:30N 42°23' W 071°03'0 0.0
2017-Nov-08 04:01N 42°23' W 071°03'0 0.0
2017-Nov-08 03:31N 42°23' W 071°03'0 0.0
2017-Nov-08 03:01N 42°23' W 071°03'0 0.0
2017-Nov-08 02:30N 42°23' W 071°03'0 0.0
2017-Nov-08 02:01N 42°23' W 071°03'0 0.0
2017-Nov-08 01:31N 42°23' W 071°03'0 0.0
2017-Nov-08 01:00N 42°23' W 071°03'0 0.0
2017-Nov-08 00:31N 42°23' W 071°03'0 0.0
2017-Nov-08 00:01N 42°23' W 071°03'0 0.0
2017-Nov-07 23:30N 42°23' W 071°03'0 0.0
2017-Nov-07 23:01N 42°23' W 071°03'0 0.0
2017-Nov-07 22:31N 42°23' W 071°03'0 0.0
2017-Nov-07 22:00N 42°23' W 071°03'0 0.0
2017-Nov-07 21:31N 42°23' W 071°03'0 0.0
2017-Nov-07 21:00N 42°23' W 071°03'0 0.0
2017-Nov-07 20:31N 42°23' W 071°03'  

Dump ship's entire track history